createdAt,value
2019-05-16T00:00:31.677Z,1001.07
2019-05-16T00:01:30.023Z,1001.01
2019-05-16T00:02:25.605Z,1001.04
2019-05-16T00:03:22.642Z,1001.06
2019-05-16T00:04:19.614Z,1001.04
2019-05-16T00:05:18.653Z,1001.07
2019-05-16T00:06:13.653Z,1001.09
2019-05-16T00:07:10.717Z,1001.05
2019-05-16T00:08:12.373Z,1001.05
2019-05-16T00:09:04.754Z,1001.04
2019-05-16T00:10:01.794Z,1001.03
2019-05-16T00:10:58.740Z,1000.94
2019-05-16T00:11:58.012Z,1000.99
2019-05-16T00:12:52.749Z,1001.02
2019-05-16T00:13:49.753Z,1000.93
2019-05-16T00:14:48.817Z,1000.92
2019-05-16T00:15:43.719Z,1000.82
2019-05-16T00:16:40.769Z,1000.94
2019-05-16T00:17:38.566Z,1000.93
2019-05-16T00:18:34.838Z,1000.95
2019-05-16T00:19:31.858Z,1000.89
2019-05-16T00:20:28.904Z,1000.93
2019-05-16T00:21:28.142Z,1000.88
2019-05-16T00:22:22.785Z,1000.94
2019-05-16T00:23:19.820Z,1000.88
2019-05-16T00:24:18.656Z,1000.84
2019-05-16T00:25:13.922Z,1000.90
2019-05-16T00:26:10.882Z,1000.91
2019-05-16T00:27:08.409Z,1000.87
2019-05-16T00:28:04.915Z,1000.86
2019-05-16T00:29:01.979Z,1000.78
2019-05-16T00:29:58.970Z,1000.86
2019-05-16T00:30:55.970Z,1000.79
2019-05-16T00:31:52.951Z,1000.81
2019-05-16T00:32:49.974Z,1000.76
2019-05-16T00:33:48.798Z,1000.79
2019-05-16T00:34:43.985Z,1000.74
2019-05-16T00:35:41.002Z,1000.79
2019-05-16T00:36:38.333Z,1000.75
2019-05-16T00:37:34.971Z,1000.73
2019-05-16T00:38:32.098Z,1000.74
2019-05-16T00:39:28.986Z,1000.70
2019-05-16T00:40:27.843Z,1000.67
2019-05-16T00:41:23.052Z,1000.69
2019-05-16T00:42:20.064Z,1000.62
2019-05-16T00:43:18.372Z,1000.67
2019-05-16T00:44:14.131Z,1000.57
2019-05-16T00:45:13.395Z,1000.57
2019-05-16T00:46:08.328Z,1000.58
2019-05-16T00:47:05.141Z,1000.68
2019-05-16T00:48:02.121Z,1000.61
2019-05-16T00:48:59.132Z,1000.60
2019-05-16T00:49:58.052Z,1000.60
2019-05-16T00:50:53.210Z,1000.52
2019-05-16T00:51:50.125Z,1000.56
2019-05-16T00:52:48.702Z,1000.54
2019-05-16T00:53:44.098Z,1000.53
2019-05-16T00:54:41.223Z,1000.57
2019-05-16T00:55:38.873Z,1000.53
2019-05-16T00:56:35.140Z,1000.54
2019-05-16T00:57:32.155Z,1000.51
2019-05-16T00:58:29.179Z,1000.68
2019-05-16T00:59:27.633Z,1000.59
2019-05-16T01:00:23.275Z,1000.60
2019-05-16T01:01:20.197Z,1000.57
2019-05-16T01:02:18.200Z,1000.55
2019-05-16T01:03:14.272Z,1000.54
2019-05-16T01:04:11.213Z,1000.59
2019-05-16T01:05:08.736Z,1000.55
2019-05-16T01:06:15.764Z,1000.49
2019-05-16T01:07:02.319Z,1000.50
2019-05-16T01:07:59.254Z,1000.47
2019-05-16T01:08:57.995Z,1000.45
2019-05-16T01:09:53.549Z,1000.45
2019-05-16T01:10:51.524Z,1000.39
2019-05-16T01:11:48.683Z,1000.43
2019-05-16T01:12:44.338Z,1000.47
2019-05-16T01:13:41.368Z,1000.50
2019-05-16T01:14:38.572Z,1000.41
2019-05-16T01:15:35.341Z,1000.43
2019-05-16T01:16:32.399Z,1000.37
2019-05-16T01:17:29.418Z,1000.38
2019-05-16T01:18:28.514Z,1000.38
2019-05-16T01:19:23.418Z,1000.40
2019-05-16T01:20:20.374Z,1000.39
2019-05-16T01:21:18.626Z,1000.36
2019-05-16T01:22:14.405Z,1000.41
2019-05-16T01:23:11.458Z,1000.33
2019-05-16T01:24:08.488Z,1000.40
2019-05-16T01:25:05.620Z,1000.36
2019-05-16T01:26:02.550Z,1000.31
2019-05-16T01:26:59.483Z,1000.32
2019-05-16T01:27:58.271Z,1000.38
2019-05-16T01:28:53.596Z,1000.38
2019-05-16T01:29:50.533Z,1000.30
2019-05-16T01:30:48.913Z,1000.30
2019-05-16T01:31:44.590Z,1000.33
2019-05-16T01:32:41.514Z,1000.35
2019-05-16T01:33:38.694Z,1000.30
2019-05-16T01:34:37.676Z,1000.30
2019-05-16T01:35:32.804Z,1000.24
2019-05-16T01:36:36.772Z,1000.33
2019-05-16T01:37:27.911Z,1000.24
2019-05-16T01:38:23.648Z,1000.31
2019-05-16T01:39:20.662Z,1000.27
2019-05-16T01:40:18.930Z,1000.33
2019-05-16T01:41:14.700Z,1000.26
2019-05-16T01:42:11.715Z,1000.26
2019-05-16T01:43:08.732Z,1000.27
2019-05-16T01:44:07.706Z,1000.27
2019-05-16T01:45:02.718Z,1000.21
2019-05-16T01:45:59.724Z,1000.16
2019-05-16T01:46:58.612Z,1000.19
2019-05-16T01:47:53.696Z,1000.22
2019-05-16T01:48:50.735Z,1000.21
2019-05-16T01:49:48.812Z,1000.19
2019-05-16T01:50:45.281Z,1000.14
2019-05-16T01:51:41.785Z,1000.10
2019-05-16T01:52:38.782Z,1000.13
2019-05-16T01:53:35.819Z,1000.12
2019-05-16T01:54:32.755Z,1000.20
2019-05-16T01:55:29.816Z,1000.02
2019-05-16T01:56:28.052Z,1000.09
2019-05-16T01:57:23.775Z,1000.11
2019-05-16T01:58:20.816Z,1000.13
2019-05-16T01:59:18.267Z,1000.06
2019-05-16T02:00:14.894Z,1000.08
2019-05-16T02:01:15.582Z,1000.01
2019-05-16T02:02:08.867Z,1000.07
2019-05-16T02:03:08.102Z,1000.10
2019-05-16T02:04:02.925Z,1000.10
2019-05-16T02:04:59.855Z,1000.04
2019-05-16T02:05:58.576Z,999.99
2019-05-16T02:06:55.044Z,1000.10
2019-05-16T02:07:50.871Z,1000.02
2019-05-16T02:08:48.741Z,1000.03
2019-05-16T02:09:44.977Z,1000.09
2019-05-16T02:10:41.980Z,1000.09
2019-05-16T02:11:39.248Z,1000.04
2019-05-16T02:12:38.187Z,1000.05
2019-05-16T02:13:33.036Z,999.98
2019-05-16T02:14:30.037Z,999.97
2019-05-16T02:15:28.584Z,1000.05
2019-05-16T02:16:23.998Z,1000.08
2019-05-16T02:17:21.081Z,1000.02
2019-05-16T02:18:18.484Z,1000.00
2019-05-16T02:19:15.025Z,1000.01
2019-05-16T02:20:12.105Z,999.93
2019-05-16T02:21:09.123Z,999.99
2019-05-16T02:22:06.034Z,1000.07
2019-05-16T02:23:03.106Z,1000.02
2019-05-16T02:24:02.035Z,1000.00
2019-05-16T02:24:58.481Z,1000.04
2019-05-16T02:25:54.074Z,1000.00
2019-05-16T02:26:52.378Z,999.96
2019-05-16T02:27:48.838Z,999.93
2019-05-16T02:28:45.178Z,1000.00
2019-05-16T02:29:42.116Z,1000.03
2019-05-16T02:30:42.214Z,999.96
2019-05-16T02:31:36.228Z,999.97
2019-05-16T02:32:33.220Z,1000.01
2019-05-16T02:33:31.730Z,999.98
2019-05-16T02:34:27.212Z,999.95
2019-05-16T02:35:24.319Z,999.97
2019-05-16T02:36:21.892Z,999.93
2019-05-16T02:37:28.196Z,999.97
2019-05-16T02:38:15.340Z,999.97
2019-05-16T02:39:12.327Z,999.95
2019-05-16T02:40:12.049Z,999.99
2019-05-16T02:41:06.272Z,1000.01
2019-05-16T02:42:03.317Z,1000.00
2019-05-16T02:43:01.681Z,999.94
2019-05-16T02:43:57.273Z,999.95
2019-05-16T02:44:54.314Z,999.86
2019-05-16T02:45:52.149Z,999.97
2019-05-16T02:46:50.872Z,999.91
2019-05-16T02:47:45.481Z,999.93
2019-05-16T02:48:42.408Z,999.93
2019-05-16T02:49:42.029Z,999.92
2019-05-16T02:50:36.441Z,999.89
2019-05-16T02:51:33.403Z,999.89
2019-05-16T02:52:31.753Z,999.90
2019-05-16T02:53:30.671Z,999.94
2019-05-16T02:54:24.388Z,999.82
2019-05-16T02:55:21.849Z,999.80
2019-05-16T02:56:21.174Z,999.81
2019-05-16T02:57:15.486Z,999.81
2019-05-16T02:58:12.460Z,999.78
2019-05-16T02:59:11.885Z,999.76
2019-05-16T03:00:06.588Z,999.75
2019-05-16T03:01:03.441Z,999.67
2019-05-16T03:02:01.050Z,999.74
2019-05-16T03:02:57.538Z,999.73
2019-05-16T03:03:54.549Z,999.73
2019-05-16T03:04:52.008Z,999.70
2019-05-16T03:05:50.791Z,999.70
2019-05-16T03:06:45.574Z,999.63
2019-05-16T03:07:46.857Z,999.65
2019-05-16T03:08:41.270Z,999.67
2019-05-16T03:09:36.586Z,999.66
2019-05-16T03:10:33.622Z,999.72
2019-05-16T03:11:31.448Z,999.66
2019-05-16T03:12:30.635Z,999.57
2019-05-16T03:13:24.636Z,999.65
2019-05-16T03:14:21.694Z,999.60
2019-05-16T03:15:21.808Z,999.57
2019-05-16T03:16:15.719Z,999.68
2019-05-16T03:17:12.659Z,999.60
2019-05-16T03:18:11.607Z,999.59
2019-05-16T03:19:06.690Z,999.57
2019-05-16T03:20:03.680Z,999.53
2019-05-16T03:21:00.813Z,999.54
2019-05-16T03:22:00.974Z,999.48
2019-05-16T03:22:54.691Z,999.52
2019-05-16T03:23:51.730Z,999.47
2019-05-16T03:24:51.549Z,999.44
2019-05-16T03:25:45.844Z,999.49
2019-05-16T03:26:42.747Z,999.52
2019-05-16T03:27:41.421Z,999.42
2019-05-16T03:28:36.819Z,999.43
2019-05-16T03:29:33.775Z,999.42
2019-05-16T03:30:34.935Z,999.41
2019-05-16T03:31:27.814Z,999.36
2019-05-16T03:32:24.885Z,999.36
2019-05-16T03:33:30.805Z,999.45
2019-05-16T03:34:24.751Z,999.36
2019-05-16T03:35:16.810Z,999.43
2019-05-16T03:36:14.975Z,999.35
2019-05-16T03:37:14.339Z,999.37
2019-05-16T03:38:06.894Z,999.44
2019-05-16T03:39:03.929Z,999.46
2019-05-16T03:40:00.941Z,999.37
2019-05-16T03:41:00.792Z,999.38
2019-05-16T03:41:54.913Z,999.37
2019-05-16T03:42:51.974Z,999.42
2019-05-16T03:43:50.675Z,999.36
2019-05-16T03:44:45.929Z,999.38
2019-05-16T03:45:42.961Z,999.40
2019-05-16T03:46:41.283Z,999.34
2019-05-16T03:47:36.976Z,999.39
2019-05-16T03:48:34.073Z,999.32
2019-05-16T03:49:31.435Z,999.29
2019-05-16T03:50:30.549Z,999.38
2019-05-16T03:51:25.007Z,999.38
2019-05-16T03:52:22.035Z,999.39
2019-05-16T03:53:21.298Z,999.30
2019-05-16T03:54:16.015Z,999.32
2019-05-16T03:55:13.033Z,999.31
2019-05-16T03:56:11.165Z,999.31
2019-05-16T03:57:07.140Z,999.29
2019-05-16T03:58:04.052Z,999.29
2019-05-16T03:59:01.307Z,999.21
2019-05-16T04:00:00.679Z,999.31
2019-05-16T04:00:55.494Z,999.33
2019-05-16T04:01:52.126Z,999.27
2019-05-16T04:02:52.042Z,999.25
2019-05-16T04:03:46.251Z,999.18
2019-05-16T04:04:43.206Z,999.26
2019-05-16T04:05:41.405Z,999.20
2019-05-16T04:06:37.214Z,999.33
2019-05-16T04:07:34.242Z,999.25
2019-05-16T04:08:31.345Z,999.26
2019-05-16T04:09:31.304Z,999.22
2019-05-16T04:10:25.275Z,999.26
2019-05-16T04:11:23.577Z,999.25
2019-05-16T04:12:21.385Z,999.20
2019-05-16T04:13:16.320Z,999.27
2019-05-16T04:14:13.267Z,999.27
2019-05-16T04:15:11.377Z,999.21
2019-05-16T04:16:07.306Z,999.19
2019-05-16T04:17:04.279Z,999.24
2019-05-16T04:18:01.630Z,999.21
2019-05-16T04:19:01.651Z,999.18
2019-05-16T04:19:55.317Z,999.16
2019-05-16T04:20:53.006Z,999.13
2019-05-16T04:21:51.094Z,999.14
2019-05-16T04:22:46.297Z,999.19
2019-05-16T04:23:43.335Z,999.12
2019-05-16T04:24:41.812Z,999.08
2019-05-16T04:25:40.746Z,999.15
2019-05-16T04:26:36.052Z,999.17
2019-05-16T04:27:31.396Z,999.08
2019-05-16T04:28:31.375Z,999.13
2019-05-16T04:29:25.380Z,999.09
2019-05-16T04:30:22.406Z,999.16
2019-05-16T04:31:22.096Z,999.17
2019-05-16T04:32:16.506Z,999.07
2019-05-16T04:33:13.415Z,999.06
2019-05-16T04:34:11.773Z,999.17
2019-05-16T04:35:10.940Z,998.99
2019-05-16T04:36:04.515Z,999.00
2019-05-16T04:37:01.509Z,999.02
2019-05-16T04:38:01.627Z,999.08
2019-05-16T04:38:55.540Z,999.02
2019-05-16T04:39:52.477Z,999.08
2019-05-16T04:40:51.537Z,999.10
2019-05-16T04:41:46.582Z,998.96
2019-05-16T04:42:43.575Z,999.03
2019-05-16T04:43:41.634Z,998.98
2019-05-16T04:44:37.545Z,999.10
2019-05-16T04:45:34.762Z,999.13
2019-05-16T04:46:31.656Z,999.01
2019-05-16T04:47:31.437Z,999.09
2019-05-16T04:48:25.616Z,999.10
2019-05-16T04:49:22.632Z,999.07
2019-05-16T04:50:21.045Z,999.12
2019-05-16T04:51:16.660Z,999.05
2019-05-16T04:52:13.665Z,999.10
2019-05-16T04:53:11.454Z,999.13
2019-05-16T04:54:11.087Z,999.04
2019-05-16T04:55:04.991Z,999.10
2019-05-16T04:56:02.163Z,999.17
2019-05-16T04:57:01.501Z,999.13
2019-05-16T04:57:55.718Z,999.10
2019-05-16T04:58:52.791Z,999.06
2019-05-16T04:59:50.862Z,999.11
2019-05-16T05:00:46.684Z,999.11
2019-05-16T05:01:43.816Z,999.08
2019-05-16T05:02:41.904Z,999.07
2019-05-16T05:03:40.680Z,999.15
2019-05-16T05:04:34.752Z,999.13
2019-05-16T05:05:33.422Z,999.11
2019-05-16T05:06:31.237Z,999.01
2019-05-16T05:07:25.832Z,999.06
2019-05-16T05:08:22.834Z,999.16
2019-05-16T05:09:20.940Z,999.09
2019-05-16T05:10:16.944Z,999.04
2019-05-16T05:11:13.790Z,999.12
2019-05-16T05:12:11.622Z,999.08
2019-05-16T05:13:10.782Z,999.11
2019-05-16T05:14:04.897Z,999.11
2019-05-16T05:15:01.850Z,999.04
2019-05-16T05:16:01.283Z,999.08
2019-05-16T05:16:55.913Z,999.07
2019-05-16T05:17:52.937Z,999.12
2019-05-16T05:18:51.468Z,999.13
2019-05-16T05:19:46.908Z,999.10
2019-05-16T05:20:44.042Z,999.09
2019-05-16T05:21:41.188Z,999.11
2019-05-16T05:22:39.799Z,999.10
2019-05-16T05:23:34.977Z,999.10
2019-05-16T05:24:32.006Z,999.11
2019-05-16T05:25:30.842Z,999.05
2019-05-16T05:26:25.988Z,999.07
2019-05-16T05:27:23.014Z,999.09
2019-05-16T05:28:20.936Z,999.15
2019-05-16T05:29:16.993Z,999.07
2019-05-16T05:30:14.041Z,998.97
2019-05-16T05:31:11.079Z,998.96
2019-05-16T05:32:14.034Z,999.03
2019-05-16T05:33:05.033Z,998.96
2019-05-16T05:34:02.089Z,998.98
2019-05-16T05:34:59.917Z,998.98
2019-05-16T05:35:56.134Z,998.99
2019-05-16T05:36:53.162Z,998.97
2019-05-16T05:37:50.724Z,998.95
2019-05-16T05:38:49.106Z,998.96
2019-05-16T05:39:44.111Z,999.02
2019-05-16T05:40:41.159Z,998.99
2019-05-16T05:41:40.153Z,999.01
2019-05-16T05:42:35.201Z,999.04
2019-05-16T05:43:32.128Z,999.08
2019-05-16T05:44:30.686Z,999.12
2019-05-16T05:45:26.218Z,999.03
2019-05-16T05:46:23.158Z,999.07
2019-05-16T05:47:20.226Z,999.09
2019-05-16T05:48:17.213Z,999.07
2019-05-16T05:49:14.265Z,999.04
2019-05-16T05:50:11.450Z,999.02
2019-05-16T05:51:11.029Z,999.07
2019-05-16T05:52:05.352Z,998.97
2019-05-16T05:53:02.303Z,999.11
2019-05-16T05:54:00.135Z,999.07
2019-05-16T05:54:56.270Z,999.12
2019-05-16T05:55:53.321Z,999.00
2019-05-16T05:56:50.305Z,999.02
2019-05-16T05:57:47.353Z,999.07
2019-05-16T05:58:44.321Z,999.21
2019-05-16T05:59:41.357Z,999.13
2019-05-16T06:00:40.583Z,999.18
2019-05-16T06:01:35.353Z,999.08
2019-05-16T06:02:32.366Z,999.17
2019-05-16T06:03:32.927Z,999.10
2019-05-16T06:04:26.352Z,999.19
2019-05-16T06:05:23.467Z,999.15
2019-05-16T06:06:21.091Z,999.20
2019-05-16T06:07:20.412Z,999.09
2019-05-16T06:08:14.429Z,999.11
2019-05-16T06:09:25.406Z,999.00
2019-05-16T06:10:10.630Z,999.01
2019-05-16T06:11:05.407Z,998.99
2019-05-16T06:12:02.455Z,998.98
2019-05-16T06:13:00.614Z,998.89
2019-05-16T06:13:56.514Z,999.00
2019-05-16T06:14:53.459Z,998.87
2019-05-16T06:15:51.416Z,998.83
2019-05-16T06:16:47.610Z,998.81
2019-05-16T06:17:44.556Z,998.84
2019-05-16T06:18:41.608Z,998.85
2019-05-16T06:19:40.230Z,998.82
2019-05-16T06:20:35.666Z,998.80
2019-05-16T06:21:33.345Z,998.88
2019-05-16T06:22:29.976Z,999.00
2019-05-16T06:23:26.617Z,998.95
2019-05-16T06:24:23.653Z,998.99
2019-05-16T06:25:22.974Z,998.86
2019-05-16T06:26:20.163Z,998.89
2019-05-16T06:27:14.866Z,998.84
2019-05-16T06:28:11.685Z,998.85
2019-05-16T06:29:10.475Z,998.86
2019-05-16T06:30:05.775Z,998.86
2019-05-16T06:31:02.799Z,998.76
2019-05-16T06:32:00.219Z,998.77
2019-05-16T06:32:56.650Z,998.88
2019-05-16T06:33:53.685Z,998.97
2019-05-16T06:34:50.915Z,998.87
2019-05-16T06:35:47.667Z,998.78
2019-05-16T06:36:44.699Z,998.81
2019-05-16T06:37:41.741Z,998.83
2019-05-16T06:38:40.546Z,998.74
2019-05-16T06:39:41.889Z,998.75
2019-05-16T06:40:32.788Z,998.76
2019-05-16T06:41:30.436Z,998.69
2019-05-16T06:42:26.731Z,998.78
2019-05-16T06:43:23.787Z,998.86
2019-05-16T06:44:20.789Z,999.01
2019-05-16T06:45:20.326Z,998.96
2019-05-16T06:46:14.770Z,998.95
2019-05-16T06:47:19.485Z,998.83
2019-05-16T06:48:10.066Z,998.98
2019-05-16T06:49:05.908Z,998.91
2019-05-16T06:50:02.807Z,998.80
2019-05-16T06:51:02.985Z,998.86
2019-05-16T06:51:56.912Z,999.01
2019-05-16T06:52:53.841Z,998.87
2019-05-16T06:53:50.898Z,998.78
2019-05-16T06:54:50.409Z,998.90
2019-05-16T06:55:45.022Z,998.89
2019-05-16T06:56:41.863Z,998.90
2019-05-16T06:57:40.837Z,998.83
2019-05-16T06:58:45.659Z,998.77
2019-05-16T06:59:33.003Z,998.74
2019-05-16T07:00:30.242Z,998.67
2019-05-16T07:01:27.113Z,998.59
2019-05-16T07:02:30.474Z,998.69
2019-05-16T07:03:20.970Z,998.95
2019-05-16T07:04:20.091Z,998.68
2019-05-16T07:05:15.003Z,998.66
2019-05-16T07:06:29.769Z,998.64
2019-05-16T07:07:11.942Z,998.68
2019-05-16T07:08:06.028Z,998.62
2019-05-16T07:09:03.093Z,998.55
2019-05-16T07:10:04.174Z,998.53
2019-05-16T07:10:57.113Z,998.31
2019-05-16T07:11:54.145Z,998.44
2019-05-16T07:12:51.114Z,998.54
2019-05-16T07:13:51.758Z,998.55
2019-05-16T07:14:45.175Z,998.53
2019-05-16T07:15:42.146Z,998.61
2019-05-16T07:16:40.510Z,998.50
2019-05-16T07:17:36.104Z,998.26
2019-05-16T07:18:33.134Z,998.25
2019-05-16T07:19:30.253Z,998.44
2019-05-16T07:20:27.230Z,998.64
2019-05-16T07:21:24.133Z,998.80
2019-05-16T07:22:21.192Z,998.78
2019-05-16T07:23:20.616Z,998.88
2019-05-16T07:24:16.971Z,998.59
2019-05-16T07:25:12.163Z,998.06
2019-05-16T07:26:09.947Z,998.14
2019-05-16T07:27:09.022Z,997.55
2019-05-16T07:28:03.423Z,997.40
2019-05-16T07:29:00.372Z,999.14
2019-05-16T07:29:58.455Z,999.02
2019-05-16T07:30:54.293Z,998.86
2019-05-16T07:31:52.455Z,998.82
2019-05-16T07:32:49.964Z,998.75
2019-05-16T07:33:45.324Z,998.93
2019-05-16T07:34:42.340Z,998.80
2019-05-16T07:35:40.126Z,998.54
2019-05-16T07:36:36.261Z,998.43
2019-05-16T07:37:33.444Z,998.36
2019-05-16T07:38:30.897Z,998.09
2019-05-16T07:39:27.371Z,998.53
2019-05-16T07:40:26.905Z,998.55
2019-05-16T07:41:21.449Z,998.33
2019-05-16T07:42:20.055Z,998.52
2019-05-16T07:43:15.409Z,998.34
2019-05-16T07:44:12.611Z,998.35
2019-05-16T07:45:10.564Z,998.25
2019-05-16T07:46:06.405Z,998.09
2019-05-16T07:47:03.464Z,997.77
2019-05-16T07:48:00.497Z,998.06
2019-05-16T07:49:00.953Z,998.45
2019-05-16T07:49:54.540Z,998.54
2019-05-16T07:50:51.477Z,998.71
2019-05-16T07:51:49.815Z,998.63
2019-05-16T07:52:45.457Z,998.65
2019-05-16T07:53:42.575Z,998.57
2019-05-16T07:54:40.390Z,998.46
2019-05-16T07:55:36.459Z,998.32
2019-05-16T07:56:33.499Z,998.38
2019-05-16T07:57:30.731Z,998.15
2019-05-16T07:58:27.604Z,998.16
2019-05-16T07:59:24.518Z,998.20
2019-05-16T08:00:24.379Z,998.24
2019-05-16T08:01:20.066Z,998.31
2019-05-16T08:02:15.608Z,998.35
2019-05-16T08:03:12.551Z,998.23
2019-05-16T08:04:10.537Z,998.24
2019-05-16T08:05:06.619Z,998.44
2019-05-16T08:06:03.649Z,998.41
2019-05-16T08:07:00.899Z,998.37
2019-05-16T08:07:59.902Z,998.27
2019-05-16T08:08:54.769Z,998.39
2019-05-16T08:09:51.643Z,998.34
2019-05-16T08:10:51.054Z,998.11
2019-05-16T08:11:45.779Z,998.26
2019-05-16T08:12:42.632Z,998.25
2019-05-16T08:13:40.058Z,998.36
2019-05-16T08:14:36.707Z,998.43
2019-05-16T08:15:33.732Z,998.38
2019-05-16T08:16:30.888Z,998.12
2019-05-16T08:17:27.728Z,998.19
2019-05-16T08:18:24.739Z,998.05
2019-05-16T08:19:25.218Z,998.16
2019-05-16T08:20:21.084Z,998.08
2019-05-16T08:21:16.930Z,997.91
2019-05-16T08:22:12.891Z,998.01
2019-05-16T08:23:11.115Z,997.86
2019-05-16T08:24:08.364Z,997.79
2019-05-16T08:25:03.893Z,997.40
2019-05-16T08:27:01.053Z,997.47
2019-05-16T08:27:54.909Z,997.84
2019-05-16T08:28:51.881Z,998.06
2019-05-16T08:29:51.345Z,997.43
2019-05-16T08:30:45.854Z,996.92
2019-05-16T08:31:43.213Z,997.16
2019-05-16T08:32:42.225Z,998.15
2019-05-16T08:33:36.966Z,998.19
2019-05-16T08:34:33.957Z,998.34
2019-05-16T08:35:31.591Z,998.10
2019-05-16T08:36:28.047Z,998.59
2019-05-16T08:37:37.067Z,998.78
2019-05-16T08:38:22.097Z,998.89
2019-05-16T08:39:21.433Z,998.74
2019-05-16T08:40:16.008Z,998.44
2019-05-16T08:41:17.171Z,998.16
2019-05-16T08:42:13.155Z,998.24
2019-05-16T08:43:07.035Z,998.18
2019-05-16T08:44:04.048Z,998.16
2019-05-16T08:45:01.910Z,998.07
2019-05-16T08:46:00.916Z,997.77
2019-05-16T08:46:58.147Z,997.57
2019-05-16T08:48:53.843Z,997.26
2019-05-16T08:49:46.253Z,997.50
2019-05-16T08:50:06.464Z,997.49
2019-05-16T08:50:50.277Z,997.87
2019-05-16T08:51:42.629Z,997.83
2019-05-16T08:52:37.374Z,997.75
2019-05-16T08:53:34.400Z,997.88
2019-05-16T08:54:32.013Z,998.03
2019-05-16T08:55:31.159Z,997.91
2019-05-16T08:56:25.214Z,997.98
2019-05-16T08:57:27.896Z,997.99
2019-05-16T08:59:16.205Z,998.30
2019-05-16T09:00:15.125Z,998.14
2019-05-16T09:01:14.892Z,997.88
2019-05-16T09:02:07.169Z,997.75
2019-05-16T09:03:04.268Z,997.82
2019-05-16T09:04:01.548Z,997.93
2019-05-16T09:05:04.415Z,997.90
2019-05-16T09:05:55.282Z,998.11
2019-05-16T09:06:52.687Z,998.09
2019-05-16T09:07:49.259Z,998.01
2019-05-16T09:08:46.327Z,997.91
2019-05-16T09:09:51.539Z,997.87
2019-05-16T09:10:30.768Z,998.23
2019-05-16T09:10:53.423Z,997.84
2019-05-16T09:11:44.922Z,997.64
2019-05-16T09:12:37.095Z,997.55
2019-05-16T09:13:31.273Z,997.51
2019-05-16T09:14:31.877Z,997.44
2019-05-16T09:15:27.329Z,997.49
2019-05-16T09:16:22.275Z,997.70
2019-05-16T09:17:19.322Z,997.59
2019-05-16T09:18:17.887Z,997.60
2019-05-16T09:18:30.744Z,997.34
2019-05-16T09:19:13.303Z,997.69
2019-05-16T09:20:10.340Z,997.54
2019-05-16T09:21:07.696Z,997.56
2019-05-16T09:22:07.151Z,997.80
2019-05-16T09:23:01.385Z,997.60
2019-05-16T09:23:58.466Z,997.52
2019-05-16T09:24:57.617Z,997.11
2019-05-16T09:25:52.588Z,997.19
2019-05-16T09:26:49.428Z,997.07
2019-05-16T09:27:47.057Z,996.95
2019-05-16T09:28:43.464Z,996.98
2019-05-16T09:29:40.416Z,997.12
2019-05-16T09:30:37.549Z,997.52
2019-05-16T09:31:34.577Z,997.59
2019-05-16T09:32:31.523Z,997.66
2019-05-16T09:33:28.446Z,997.73
2019-05-16T09:34:28.726Z,997.27
2019-05-16T09:35:22.457Z,997.08
2019-05-16T09:36:19.576Z,997.53
2019-05-16T09:37:17.989Z,997.71
2019-05-16T09:38:13.571Z,997.76
2019-05-16T09:39:10.609Z,997.62
2019-05-16T09:40:07.505Z,997.39
2019-05-16T09:41:07.667Z,997.37
2019-05-16T09:42:01.628Z,997.10
2019-05-16T09:42:58.653Z,997.11
2019-05-16T09:43:58.661Z,997.22
2019-05-16T09:44:52.686Z,997.49
2019-05-16T09:45:49.736Z,997.60
2019-05-16T09:46:47.210Z,997.52
2019-05-16T09:47:43.644Z,997.97
2019-05-16T09:48:40.676Z,997.29
2019-05-16T09:49:37.759Z,997.14
2019-05-16T09:50:37.470Z,997.17
2019-05-16T09:51:31.764Z,997.40
2019-05-16T09:52:28.803Z,997.34
2019-05-16T09:53:27.682Z,997.26
2019-05-16T09:54:22.661Z,997.33
2019-05-16T09:55:19.700Z,997.15
2019-05-16T09:56:17.013Z,996.68
2019-05-16T09:57:13.821Z,996.93
2019-05-16T09:58:10.791Z,997.35
2019-05-16T09:59:07.779Z,997.15
2019-05-16T10:00:06.771Z,996.97
2019-05-16T10:01:01.923Z,996.96
2019-05-16T10:01:58.862Z,997.19
2019-05-16T10:02:57.916Z,997.67
2019-05-16T10:03:52.867Z,997.44
2019-05-16T10:04:49.801Z,997.06
2019-05-16T10:05:47.011Z,997.04
2019-05-16T10:06:43.935Z,996.97
2019-05-16T10:07:40.874Z,997.18
2019-05-16T10:08:37.852Z,997.20
2019-05-16T10:09:42.060Z,997.50
2019-05-16T10:10:31.982Z,997.07
2019-05-16T10:11:30.984Z,996.65
2019-05-16T10:12:26.334Z,996.91
2019-05-16T10:13:22.900Z,997.04
2019-05-16T10:14:19.971Z,997.27
2019-05-16T10:15:17.595Z,997.22
2019-05-16T10:16:16.546Z,997.20
2019-05-16T10:17:11.070Z,997.11
2019-05-16T10:18:07.988Z,997.34
2019-05-16T10:19:07.248Z,997.73
2019-05-16T10:20:01.960Z,997.36
2019-05-16T10:20:59.308Z,996.94
2019-05-16T10:22:00.019Z,997.02
2019-05-16T10:22:53.267Z,997.11
2019-05-16T10:23:50.044Z,997.06
2019-05-16T10:24:47.126Z,997.13
2019-05-16T10:25:44.208Z,996.56
2019-05-16T10:26:41.051Z,996.68
2019-05-16T10:27:38.186Z,996.77
2019-05-16T10:28:38.170Z,996.67
2019-05-16T10:29:32.123Z,996.89
2019-05-16T10:30:29.376Z,996.77
2019-05-16T10:31:40.431Z,996.95
2019-05-16T10:32:23.223Z,996.84
2019-05-16T10:33:20.213Z,996.59
2019-05-16T10:34:17.424Z,996.97
2019-05-16T10:35:14.446Z,997.08
2019-05-16T10:36:11.310Z,996.81
2019-05-16T10:37:08.263Z,996.45
2019-05-16T10:38:05.458Z,996.45
2019-05-16T10:39:02.245Z,996.58
2019-05-16T10:39:59.977Z,996.75
2019-05-16T10:40:56.663Z,996.52
2019-05-16T10:41:53.306Z,996.52
2019-05-16T10:42:50.291Z,996.36
2019-05-16T10:43:47.596Z,996.47
2019-05-16T10:44:44.212Z,996.60
2019-05-16T10:45:41.297Z,996.70
2019-05-16T10:46:38.285Z,996.64
2019-05-16T10:47:37.141Z,996.37
2019-05-16T10:48:32.237Z,996.55
2019-05-16T10:49:37.339Z,996.54
2019-05-16T10:50:27.639Z,996.50
2019-05-16T10:51:23.988Z,996.83
2019-05-16T10:52:20.404Z,996.45
2019-05-16T10:53:41.853Z,996.57
2019-05-16T10:54:17.244Z,996.54
2019-05-16T10:55:11.552Z,996.75
2019-05-16T10:56:08.502Z,996.98
2019-05-16T10:57:07.690Z,997.31
2019-05-16T10:58:02.445Z,997.19
2019-05-16T10:59:37.650Z,996.87
2019-05-16T11:00:06.651Z,996.80
2019-05-16T11:01:22.208Z,996.29
2019-05-16T11:01:50.567Z,996.01
2019-05-16T11:02:47.538Z,996.10
2019-05-16T11:03:48.893Z,995.81
2019-05-16T11:04:53.305Z,995.44
2019-05-16T11:05:39.648Z,995.60
2019-05-16T11:06:37.209Z,996.15
2019-05-16T11:07:32.586Z,996.20
2019-05-16T11:08:29.621Z,996.33
2019-05-16T11:09:26.468Z,996.37
2019-05-16T11:10:23.562Z,996.29
2019-05-16T11:11:20.647Z,996.42
2019-05-16T11:12:20.488Z,996.40
2019-05-16T11:13:17.052Z,996.57
2019-05-16T11:14:11.594Z,996.46
2019-05-16T11:15:11.369Z,996.12
2019-05-16T11:16:07.039Z,996.09
2019-05-16T11:17:02.654Z,996.24
2019-05-16T11:18:00.219Z,996.03
2019-05-16T11:19:12.543Z,995.97
2019-05-16T11:19:53.655Z,996.04
2019-05-16T11:20:50.668Z,996.09
2019-05-16T11:21:47.652Z,996.30
2019-05-16T11:22:47.564Z,996.43
2019-05-16T11:23:41.712Z,996.54
2019-05-16T11:24:38.721Z,996.52
2019-05-16T11:25:36.672Z,996.27
2019-05-16T11:26:32.837Z,996.12
2019-05-16T11:27:29.667Z,996.26
2019-05-16T11:28:26.859Z,996.57
2019-05-16T11:29:23.767Z,997.20
2019-05-16T11:30:20.872Z,996.45
2019-05-16T11:31:17.830Z,996.33
2019-05-16T11:32:14.799Z,995.79
2019-05-16T11:33:11.884Z,995.74
2019-05-16T11:34:08.879Z,995.98
2019-05-16T11:35:07.303Z,996.39
2019-05-16T11:36:02.839Z,996.34
2019-05-16T11:36:59.838Z,996.04
2019-05-16T11:37:57.165Z,995.87
2019-05-16T11:39:00.734Z,996.05
2019-05-16T11:39:50.962Z,996.48
2019-05-16T11:40:47.935Z,996.47
2019-05-16T11:41:47.349Z,996.08
2019-05-16T11:42:41.968Z,997.04
2019-05-16T11:43:38.995Z,997.08
2019-05-16T11:44:38.128Z,996.51
2019-05-16T11:45:32.910Z,995.38
2019-05-16T11:46:30.850Z,995.72